createdAt,value
2022-12-13T00:04:44.361Z,32.53
2022-12-13T00:09:54.034Z,29.20
2022-12-13T00:15:03.813Z,20.52
2022-12-13T00:25:14.770Z,26.05
2022-12-13T00:30:21.137Z,23.08
2022-12-13T00:35:22.781Z,20.85
2022-12-13T00:40:29.604Z,24.65
2022-12-13T00:45:39.281Z,20.70
2022-12-13T00:50:43.325Z,20.17
2022-12-13T00:55:57.271Z,19.25
2022-12-13T01:01:11.675Z,20.95
2022-12-13T01:06:17.585Z,20.00
2022-12-13T01:11:23.870Z,26.05
2022-12-13T01:16:30.025Z,21.50
2022-12-13T01:21:38.148Z,21.25
2022-12-13T01:26:42.095Z,23.23
2022-12-13T01:31:47.131Z,21.83
2022-12-13T01:36:52.833Z,22.33
2022-12-13T01:42:05.934Z,20.88
2022-12-13T01:47:10.274Z,24.73
2022-12-13T01:52:15.171Z,21.95
2022-12-13T01:57:26.200Z,24.00
2022-12-13T02:02:35.925Z,25.58
2022-12-13T02:07:44.603Z,25.13
2022-12-13T02:12:48.392Z,24.73
2022-12-13T02:18:24.271Z,26.58
2022-12-13T02:24:17.786Z,26.48
2022-12-13T02:29:58.598Z,25.87
2022-12-13T02:35:20.929Z,27.50
2022-12-13T02:40:38.583Z,32.55
2022-12-13T02:45:46.733Z,30.63
2022-12-13T02:50:49.518Z,28.50
2022-12-13T02:55:58.326Z,25.88
2022-12-13T03:01:28.091Z,29.08
2022-12-13T03:06:51.969Z,29.80
2022-12-13T03:12:33.768Z,33.45
2022-12-13T03:17:52.013Z,28.63
2022-12-13T03:22:58.873Z,29.88
2022-12-13T03:28:02.404Z,30.38
2022-12-13T03:33:04.956Z,30.75
2022-12-13T03:38:08.770Z,33.60
2022-12-13T03:43:23.897Z,30.70
2022-12-13T03:48:32.287Z,29.42
2022-12-13T03:53:43.624Z,29.42
2022-12-13T03:58:51.566Z,35.63
2022-12-13T04:04:03.413Z,36.92
2022-12-13T04:09:10.394Z,32.38
2022-12-13T04:14:22.751Z,37.47
2022-12-13T04:19:30.778Z,34.33
2022-12-13T04:24:37.530Z,34.88
2022-12-13T04:29:39.056Z,34.28
2022-12-13T04:34:40.617Z,40.40
2022-12-13T04:39:50.600Z,37.63
2022-12-13T04:44:52.116Z,38.70
2022-12-13T04:49:58.072Z,42.55
2022-12-13T04:55:04.787Z,46.38
2022-12-13T05:00:11.021Z,36.83
2022-12-13T05:05:15.244Z,39.95
2022-12-13T05:10:37.832Z,47.60
2022-12-13T05:15:44.546Z,45.45
2022-12-13T05:20:50.862Z,40.28
2022-12-13T05:26:05.680Z,47.38
2022-12-13T05:31:22.943Z,49.53
2022-12-13T05:36:32.802Z,41.22
2022-12-13T05:41:39.103Z,43.20
2022-12-13T05:46:41.652Z,44.33
2022-12-13T05:51:49.182Z,43.28
2022-12-13T05:56:52.744Z,45.55
2022-12-13T06:01:57.757Z,41.47
2022-12-13T06:12:31.837Z,39.05
2022-12-13T06:17:39.247Z,44.72
2022-12-13T06:22:50.243Z,38.13
2022-12-13T06:27:55.993Z,41.25
2022-12-13T06:33:10.867Z,36.67
2022-12-13T06:38:21.844Z,36.83
2022-12-13T06:43:46.944Z,41.47
2022-12-13T06:48:48.963Z,41.47
2022-12-13T06:53:50.470Z,38.53
2022-12-13T06:59:02.374Z,36.97
2022-12-13T07:04:04.090Z,42.63
2022-12-13T07:09:08.289Z,38.88
2022-12-13T07:14:11.846Z,36.58
2022-12-13T07:19:23.782Z,35.92
2022-12-13T07:24:29.755Z,33.90
2022-12-13T07:29:33.231Z,34.83
2022-12-13T07:34:39.683Z,34.40
2022-12-13T07:39:43.746Z,37.00
2022-12-13T07:44:47.610Z,39.30
2022-12-13T07:49:52.867Z,34.95
2022-12-13T07:55:08.073Z,33.72
2022-12-13T08:00:17.245Z,30.88
2022-12-13T08:05:27.815Z,33.90
2022-12-13T08:10:29.774Z,30.90
2022-12-13T08:15:31.694Z,31.63
2022-12-13T08:20:41.200Z,25.63
2022-12-13T08:25:51.770Z,25.35
2022-12-13T08:30:55.167Z,27.10
2022-12-13T08:36:09.392Z,24.15
2022-12-13T08:41:19.085Z,21.02
2022-12-13T08:46:20.683Z,20.98
2022-12-13T08:51:28.380Z,23.17
2022-12-13T08:56:39.582Z,22.70
2022-12-13T09:02:00.203Z,20.85
2022-12-13T09:07:09.684Z,23.25
2022-12-13T09:12:29.472Z,19.42
2022-12-13T09:17:37.668Z,21.17
2022-12-13T09:27:51.788Z,18.45
2022-12-13T09:33:28.252Z,17.52
2022-12-13T09:38:31.849Z,17.13
2022-12-13T09:43:43.838Z,22.95
2022-12-13T09:48:53.149Z,20.17
2022-12-13T09:54:06.705Z,17.63
2022-12-13T09:59:15.409Z,14.40
2022-12-13T10:04:20.289Z,16.63
2022-12-13T10:09:27.934Z,22.92
2022-12-13T10:14:42.674Z,21.05
2022-12-13T10:19:54.318Z,18.17
2022-12-13T10:25:06.337Z,21.40
2022-12-13T10:30:27.758Z,18.83
2022-12-13T10:35:39.902Z,17.30
2022-12-13T10:40:48.951Z,18.85
2022-12-13T10:46:04.270Z,20.37
2022-12-13T10:51:12.616Z,14.35
2022-12-13T11:01:34.902Z,18.33
2022-12-13T11:06:44.670Z,18.20
2022-12-13T11:12:00.655Z,15.45
2022-12-13T11:17:10.175Z,18.15
2022-12-13T11:22:36.051Z,17.77
2022-12-13T11:28:26.426Z,19.90
2022-12-13T11:34:10.004Z,12.07
2022-12-13T11:39:26.811Z,22.77
2022-12-13T11:44:48.116Z,15.00
2022-12-13T11:50:03.109Z,14.43
2022-12-13T11:55:18.939Z,17.88
2022-12-13T12:00:47.466Z,14.15
2022-12-13T12:05:56.496Z,16.73
2022-12-13T12:11:17.843Z,17.08
2022-12-13T12:16:43.004Z,13.77
2022-12-13T12:22:14.679Z,14.93
2022-12-13T12:27:47.441Z,14.48
2022-12-13T12:33:19.398Z,13.18
2022-12-13T12:39:03.155Z,13.38
2022-12-13T12:44:33.906Z,12.80
2022-12-13T12:50:03.599Z,14.63
2022-12-13T12:55:28.335Z,16.80
2022-12-13T13:00:48.822Z,20.02
2022-12-13T13:06:21.562Z,13.95
2022-12-13T13:16:55.732Z,13.68
2022-12-13T13:22:30.517Z,10.63
2022-12-13T13:27:50.766Z,9.63
2022-12-13T13:33:00.046Z,11.57
2022-12-13T13:38:07.303Z,15.93
2022-12-13T13:43:14.170Z,13.27
2022-12-13T13:48:54.150Z,11.95
2022-12-13T13:54:46.402Z,11.30
2022-12-13T14:00:05.926Z,16.23
2022-12-13T14:05:29.033Z,14.32
2022-12-13T14:10:48.707Z,12.07
2022-12-13T14:16:28.874Z,10.07
2022-12-13T14:22:01.414Z,16.23
2022-12-13T14:27:18.294Z,17.35
2022-12-13T14:32:29.291Z,17.40
2022-12-13T14:37:37.082Z,15.82
2022-12-13T14:47:44.605Z,20.17
2022-12-13T14:52:52.903Z,16.48
2022-12-13T14:58:00.320Z,25.35
2022-12-13T15:03:04.156Z,19.85
2022-12-13T15:08:17.712Z,19.88
2022-12-13T15:13:36.069Z,16.33
2022-12-13T15:18:50.612Z,21.88
2022-12-13T15:23:55.944Z,17.40
2022-12-13T15:29:10.637Z,16.90
2022-12-13T15:34:29.842Z,18.63
2022-12-13T15:39:39.936Z,20.33
2022-12-13T15:44:53.879Z,13.30
2022-12-13T15:50:02.855Z,11.82
2022-12-13T15:55:06.983Z,10.35
2022-12-13T16:00:20.549Z,13.23
2022-12-13T16:05:35.764Z,17.65
2022-12-13T16:10:39.809Z,12.43
2022-12-13T16:16:00.331Z,12.15
2022-12-13T16:21:14.248Z,16.75
2022-12-13T16:26:28.251Z,14.98
2022-12-13T16:31:37.401Z,14.20
2022-12-13T16:36:41.392Z,13.95
2022-12-13T16:41:54.046Z,16.33
2022-12-13T16:47:16.880Z,12.32
2022-12-13T16:52:29.250Z,11.07
2022-12-13T16:57:33.097Z,12.73
2022-12-13T17:02:51.939Z,14.18
2022-12-13T17:07:56.638Z,14.68
2022-12-13T17:13:02.982Z,20.10
2022-12-13T17:18:08.891Z,13.85
2022-12-13T17:23:17.996Z,13.83
2022-12-13T17:28:25.121Z,22.13
2022-12-13T17:33:29.440Z,19.92
2022-12-13T17:38:37.141Z,16.05
2022-12-13T17:43:44.175Z,17.15
2022-12-13T17:48:48.384Z,17.80
2022-12-13T17:53:52.010Z,22.58
2022-12-13T17:58:53.513Z,21.38
2022-12-13T18:03:57.909Z,22.20
2022-12-13T18:09:05.077Z,26.03
2022-12-13T18:14:14.594Z,23.88
2022-12-13T18:19:25.726Z,20.88
2022-12-13T18:24:35.095Z,25.95
2022-12-13T18:29:42.737Z,19.73
2022-12-13T18:35:03.252Z,27.77
2022-12-13T18:40:18.681Z,27.48
2022-12-13T18:45:24.857Z,26.02
2022-12-13T18:50:36.441Z,23.35
2022-12-13T18:55:40.156Z,23.13
2022-12-13T19:00:47.311Z,26.38
2022-12-13T19:05:51.842Z,24.65
2022-12-13T19:11:00.084Z,26.17
2022-12-13T19:16:09.670Z,31.08
2022-12-13T19:21:18.522Z,27.33
2022-12-13T19:26:21.431Z,29.08
2022-12-13T19:31:28.521Z,29.25
2022-12-13T19:36:36.411Z,31.08
2022-12-13T19:41:40.467Z,28.88
2022-12-13T19:46:44.529Z,28.25
2022-12-13T19:51:53.513Z,28.27
2022-12-13T19:57:02.525Z,31.20
2022-12-13T20:02:19.834Z,27.40
2022-12-13T20:07:23.781Z,27.35
2022-12-13T20:12:37.064Z,33.20
2022-12-13T20:17:46.920Z,34.25
2022-12-13T20:22:53.690Z,30.38
2022-12-13T20:27:55.270Z,30.63
2022-12-13T20:33:03.296Z,29.45
2022-12-13T20:38:10.900Z,27.70
2022-12-13T20:43:12.474Z,31.65
2022-12-13T20:48:19.125Z,31.92
2022-12-13T20:53:22.408Z,33.65
2022-12-13T20:58:27.861Z,28.83
2022-12-13T21:03:31.986Z,33.47
2022-12-13T21:08:51.834Z,33.20
2022-12-13T21:14:08.250Z,31.92
2022-12-13T21:19:25.360Z,30.48
2022-12-13T21:24:30.748Z,30.20
2022-12-13T21:29:34.583Z,31.15
2022-12-13T21:34:39.818Z,43.00
2022-12-13T21:39:43.672Z,41.45
2022-12-13T21:44:45.461Z,36.67
2022-12-13T21:49:52.301Z,35.28
2022-12-13T21:55:22.112Z,35.13
2022-12-13T22:00:26.070Z,33.47
2022-12-13T22:05:27.842Z,31.67
2022-12-13T22:10:31.687Z,34.63
2022-12-13T22:15:36.904Z,33.70
2022-12-13T22:20:38.533Z,30.60
2022-12-13T22:25:40.157Z,35.83
2022-12-13T22:30:44.777Z,34.83
2022-12-13T22:35:54.742Z,30.40
2022-12-13T22:41:02.720Z,30.23
2022-12-13T22:46:08.093Z,27.77
2022-12-13T22:51:19.109Z,28.52
2022-12-13T22:56:25.888Z,27.02
2022-12-13T23:01:35.594Z,28.17
2022-12-13T23:06:46.535Z,32.08
2022-12-13T23:12:09.234Z,27.15
2022-12-13T23:17:13.742Z,28.92
2022-12-13T23:22:15.426Z,29.67
2022-12-13T23:27:23.850Z,29.70
2022-12-13T23:32:28.119Z,30.83
2022-12-13T23:37:33.100Z,36.45
2022-12-13T23:42:34.597Z,31.55
2022-12-13T23:47:38.175Z,31.30
2022-12-13T23:52:44.038Z,33.72
2022-12-13T23:57:50.700Z,30.83
